Minerva Atlantica — ZCPR7 — position and weather

sailwx.info

Track history (hours):
 
Tides and Currents Weather Stations Pressure Air Temp Water Temp Dewpoint Dewpoint Depression Visibility Wind Speed Wind Dir Waves Ship Positions

Minerva Atlantica

Last reported at 2016-Oct-01 00:31 UTC. Time now 2016-Oct-01 01:31 UTC.
Position N 54°05' E 007°46'.

Length 250 m; draft 11.9 m.

Type: Ship (hazmat cat B). MMSI: 319161000.

Date/timePositionNaut miles runAvg speedWind from/ knotsBaromVisibWave heightAir tempDewpointWater temp
2016-Oct-01 00:31N 54°05' E 007°46'0 0.0
2016-Sep-30 22:28N 54°05' E 007°46'0 0.0
2016-Sep-30 20:31N 54°05' E 007°46'0 0.0
2016-Sep-30 17:31N 54°05' E 007°46'0 0.0
2016-Sep-30 16:31N 54°05' E 007°46'0 0.0
2016-Sep-30 14:31N 54°05' E 007°46'0 0.0
2016-Sep-30 13:31N 54°05' E 007°46'0 0.0
2016-Sep-30 10:31N 54°05' E 007°46'0 0.0
2016-Sep-30 08:31N 54°05' E 007°46'0 0.0
2016-Sep-30 06:31N 54°05' E 007°46'0 0.0
2016-Sep-30 03:31N 54°05' E 007°46'0 0.0
2016-Sep-30 02:31N 54°05' E 007°46'0 0.0
2016-Sep-29 23:31N 54°05' E 007°46'0 0.1
2016-Sep-29 21:28N 54°05' E 007°46'0 0.1
2016-Sep-29 20:31N 54°05' E 007°46'0 0.0
2016-Sep-29 19:31N 54°05' E 007°46'0 0.0
2016-Sep-29 16:31N 54°05' E 007°46'0 0.0
2016-Sep-29 15:31N 54°05' E 007°46'0 0.1
2016-Sep-29 14:31N 54°05' E 007°46'0 0.0
2016-Sep-29 13:31N 54°05' E 007°46'0 0.0
2016-Sep-29 08:31N 54°05' E 007°46'0 0.0
2016-Sep-29 07:31N 54°05' E 007°46'0 0.0
2016-Sep-29 00:31N 54°05' E 007°46'0 0.0
2016-Sep-28 21:31N 54°05' E 007°46'0 0.0
2016-Sep-28 19:31N 54°05' E 007°46'0 0.0
2016-Sep-28 16:33N 54°05' E 007°46'5 4.8
2016-Sep-28 15:33N 54°07' E 007°39'3311.1
2016-Sep-28 12:33N 54°27' E 006°53'32412.5
2016-Sep-27 10:33N 56°05' W 002°10'27 1.0
2016-Sep-26 08:31N 56°06' W 002°58'0 0.0
2016-Sep-26 02:31N 56°06' W 002°57'0 0.0
2016-Sep-26 01:31N 56°06' W 002°57'0 0.0
2016-Sep-26 00:31N 56°06' W 002°57'17 5.8
2016-Sep-25 21:34N 56°07' W 002°27'11911.6
2016-Sep-25 11:17N 54°56' E 000°24'8712.4
2016-Sep-25 04:16N 53°56' E 002°12'4110.9
2016-Sep-25 00:30N 53°25' E 002°56'2512.9
2016-Sep-24 22:33N 53°01' E 002°41'1413.7
2016-Sep-24 21:33N 52°48' E 002°41'2813.9
2016-Sep-24 19:33N 52°20' E 002°42'1311.7
2016-Sep-24 18:29N 52°10' E 002°54'1112.1
2016-Sep-24 17:33N 52°04' E 003°09'1212.3
2016-Sep-24 16:33N 52°04' E 003°29'2411.8
2016-Sep-24 14:34N 51°58' E 004°07'2 0.8
2016-Sep-24 12:32N 51°57' E 004°08'0 0.0
2016-Sep-24 10:30N 51°57' E 004°08'0 0.0
2016-Sep-24 09:33N 51°57' E 004°08'0 0.0
2016-Sep-24 03:32N 51°57' E 004°08'0 0.0
2016-Sep-24 02:32N 51°57' E 004°08'0 0.0
2016-Sep-24 01:32N 51°57' E 004°08'0 0.0
2016-Sep-24 00:32N 51°57' E 004°08'0 0.0
2016-Sep-23 19:32N 51°57' E 004°08'0 0.0
2016-Sep-23 17:33N 51°57' E 004°08'0 0.0
2016-Sep-23 16:32N 51°57' E 004°08'0 0.0
2016-Sep-23 15:32N 51°57' E 004°08'0 0.0
2016-Sep-23 13:33N 51°57' E 004°08'0 0.0
2016-Sep-23 09:32N 51°57' E 004°08'0 0.0
2016-Sep-23 06:32N 51°57' E 004°08'0 0.0
2016-Sep-23 04:32N 51°57' E 004°08'0 0.0
2016-Sep-23 03:33N 51°57' E 004°08'0 0.0
2016-Sep-23 02:33N 51°57' E 004°08'0 0.0
2016-Sep-23 01:33N 51°57' E 004°08'0 0.0
2016-Sep-23 00:32N 51°57' E 004°08'0 0.4
2016-Sep-22 23:34N 51°58' E 004°08'29 9.5
2016-Sep-22 20:32N 51°56' E 003°22'38310.8
2016-Sep-21 09:04N 58°16' E 004°32'712.8
2016-Sep-21 08:30N 58°23' E 004°27'  
Track history (hours):
 
Tides and Currents Weather Stations Pressure Air Temp Water Temp Dewpoint Dewpoint Depression Visibility Wind Speed Wind Dir Waves Ship Positions

Minerva Atlantica

Last reported at 2016-Oct-01 00:31 UTC. Time now 2016-Oct-01 01:31 UTC.
Position N 54°05' E 007°46'.

Length 250 m; draft 11.9 m.

Type: Ship (hazmat cat B). MMSI: 319161000.

Date/timePositionNaut miles runAvg speedWind from/ knotsBaromVisibWave heightAir tempDewpointWater temp
2016-Oct-01 00:31N 54°05' E 007°46'0 0.0
2016-Sep-30 22:28N 54°05' E 007°46'0 0.0
2016-Sep-30 20:31N 54°05' E 007°46'0 0.0
2016-Sep-30 17:31N 54°05' E 007°46'0 0.0
2016-Sep-30 16:31N 54°05' E 007°46'0 0.0
2016-Sep-30 14:31N 54°05' E 007°46'0 0.0
2016-Sep-30 13:31N 54°05' E 007°46'0 0.0
2016-Sep-30 10:31N 54°05' E 007°46'0 0.0
2016-Sep-30 08:31N 54°05' E 007°46'0 0.0
2016-Sep-30 06:31N 54°05' E 007°46'0 0.0
2016-Sep-30 03:31N 54°05' E 007°46'0 0.0
2016-Sep-30 02:31N 54°05' E 007°46'0 0.0
2016-Sep-29 23:31N 54°05' E 007°46'0 0.1
2016-Sep-29 21:28N 54°05' E 007°46'0 0.1
2016-Sep-29 20:31N 54°05' E 007°46'0 0.0
2016-Sep-29 19:31N 54°05' E 007°46'0 0.0
2016-Sep-29 16:31N 54°05' E 007°46'0 0.0
2016-Sep-29 15:31N 54°05' E 007°46'0 0.1
2016-Sep-29 14:31N 54°05' E 007°46'0 0.0
2016-Sep-29 13:31N 54°05' E 007°46'0 0.0
2016-Sep-29 08:31N 54°05' E 007°46'0 0.0
2016-Sep-29 07:31N 54°05' E 007°46'0 0.0
2016-Sep-29 00:31N 54°05' E 007°46'0 0.0
2016-Sep-28 21:31N 54°05' E 007°46'0 0.0
2016-Sep-28 19:31N 54°05' E 007°46'0 0.0
2016-Sep-28 16:33N 54°05' E 007°46'5 4.8
2016-Sep-28 15:33N 54°07' E 007°39'3311.1
2016-Sep-28 12:33N 54°27' E 006°53'32412.5
2016-Sep-27 10:33N 56°05' W 002°10'27 1.0
2016-Sep-26 08:31N 56°06' W 002°58'0 0.0
2016-Sep-26 02:31N 56°06' W 002°57'0 0.0
2016-Sep-26 01:31N 56°06' W 002°57'0 0.0
2016-Sep-26 00:31N 56°06' W 002°57'17 5.8
2016-Sep-25 21:34N 56°07' W 002°27'11911.6
2016-Sep-25 11:17N 54°56' E 000°24'8712.4
2016-Sep-25 04:16N 53°56' E 002°12'4110.9
2016-Sep-25 00:30N 53°25' E 002°56'2512.9
2016-Sep-24 22:33N 53°01' E 002°41'1413.7
2016-Sep-24 21:33N 52°48' E 002°41'2813.9
2016-Sep-24 19:33N 52°20' E 002°42'1311.7
2016-Sep-24 18:29N 52°10' E 002°54'1112.1
2016-Sep-24 17:33N 52°04' E 003°09'1212.3
2016-Sep-24 16:33N 52°04' E 003°29'2411.8
2016-Sep-24 14:34N 51°58' E 004°07'2 0.8
2016-Sep-24 12:32N 51°57' E 004°08'0 0.0
2016-Sep-24 10:30N 51°57' E 004°08'0 0.0
2016-Sep-24 09:33N 51°57' E 004°08'0 0.0
2016-Sep-24 03:32N 51°57' E 004°08'0 0.0
2016-Sep-24 02:32N 51°57' E 004°08'0 0.0
2016-Sep-24 01:32N 51°57' E 004°08'0 0.0
2016-Sep-24 00:32N 51°57' E 004°08'0 0.0
2016-Sep-23 19:32N 51°57' E 004°08'0 0.0
2016-Sep-23 17:33N 51°57' E 004°08'0 0.0
2016-Sep-23 16:32N 51°57' E 004°08'0 0.0
2016-Sep-23 15:32N 51°57' E 004°08'0 0.0
2016-Sep-23 13:33N 51°57' E 004°08'0 0.0
2016-Sep-23 09:32N 51°57' E 004°08'0 0.0
2016-Sep-23 06:32N 51°57' E 004°08'0 0.0
2016-Sep-23 04:32N 51°57' E 004°08'0 0.0
2016-Sep-23 03:33N 51°57' E 004°08'0 0.0
2016-Sep-23 02:33N 51°57' E 004°08'0 0.0
2016-Sep-23 01:33N 51°57' E 004°08'0 0.0
2016-Sep-23 00:32N 51°57' E 004°08'0 0.4
2016-Sep-22 23:34N 51°58' E 004°08'29 9.5
2016-Sep-22 20:32N 51°56' E 003°22'38310.8
2016-Sep-21 09:04N 58°16' E 004°32'712.8
2016-Sep-21 08:30N 58°23' E 004°27'  

Dump ship's entire track history